createdAt,value
2018-03-08T00:00:02.044Z,53.93
2018-03-08T00:02:29.740Z,54.10
2018-03-08T00:04:57.433Z,56.93
2018-03-08T00:07:25.070Z,61.90
2018-03-08T00:09:52.766Z,66.00
2018-03-08T00:12:20.406Z,57.83
2018-03-08T00:14:48.081Z,59.10
2018-03-08T00:17:15.904Z,55.80
2018-03-08T00:19:43.538Z,63.13
2018-03-08T00:22:11.226Z,61.77
2018-03-08T00:24:38.864Z,58.97
2018-03-08T00:27:06.552Z,61.27
2018-03-08T00:29:34.214Z,58.50
2018-03-08T00:32:01.892Z,57.30
2018-03-08T00:34:29.526Z,56.17
2018-03-08T00:36:58.125Z,54.73
2018-03-08T00:39:25.760Z,61.80
2018-03-08T00:41:53.484Z,54.60
2018-03-08T00:44:21.145Z,59.37
2018-03-08T00:46:48.837Z,57.27
2018-03-08T00:49:17.346Z,62.17
2018-03-08T00:51:45.033Z,60.60
2018-03-08T00:54:12.676Z,65.23
2018-03-08T00:56:40.352Z,71.23
2018-03-08T00:59:07.987Z,61.67
2018-03-08T01:01:36.369Z,60.87
2018-03-08T01:04:04.020Z,59.30
2018-03-08T01:06:31.703Z,61.43
2018-03-08T01:08:59.336Z,65.07
2018-03-08T01:11:27.015Z,68.90
2018-03-08T01:13:54.645Z,69.47
2018-03-08T01:16:22.332Z,65.07
2018-03-08T01:18:50.076Z,58.13
2018-03-08T01:21:17.710Z,66.87
2018-03-08T01:23:45.477Z,65.30
2018-03-08T01:26:13.173Z,92.80
2018-03-08T01:28:40.815Z,62.60
2018-03-08T01:31:08.640Z,100.20
2018-03-08T01:33:36.412Z,76.33
2018-03-08T01:36:04.080Z,73.30
2018-03-08T01:38:31.766Z,66.07
2018-03-08T01:40:59.408Z,63.40
2018-03-08T01:43:27.145Z,67.13
2018-03-08T01:45:54.796Z,64.20
2018-03-08T01:48:22.481Z,69.47
2018-03-08T01:50:50.258Z,67.63
2018-03-08T01:53:17.953Z,66.80
2018-03-08T01:55:45.716Z,70.83
2018-03-08T01:58:13.426Z,61.53
2018-03-08T02:00:41.052Z,61.73
2018-03-08T02:03:08.752Z,68.20
2018-03-08T02:05:36.393Z,70.83
2018-03-08T02:08:04.026Z,67.30
2018-03-08T02:10:31.702Z,66.00
2018-03-08T02:12:59.385Z,66.07
2018-03-08T02:15:27.043Z,71.70
2018-03-08T02:17:54.732Z,68.03
2018-03-08T02:20:22.415Z,64.77
2018-03-08T02:22:50.131Z,69.23
2018-03-08T02:25:17.808Z,81.40
2018-03-08T02:27:45.504Z,77.27
2018-03-08T02:30:13.190Z,73.60
2018-03-08T02:32:40.833Z,68.13
2018-03-08T02:35:08.582Z,66.97
2018-03-08T02:37:36.217Z,69.77
2018-03-08T02:40:03.956Z,74.97
2018-03-08T02:42:31.601Z,69.23
2018-03-08T02:44:59.243Z,68.57
2018-03-08T02:47:27.716Z,70.47
2018-03-08T02:49:55.424Z,74.73
2018-03-08T02:52:23.052Z,70.57
2018-03-08T02:54:50.728Z,75.17
2018-03-08T02:57:18.375Z,77.87
2018-03-08T02:59:47.045Z,73.90
2018-03-08T03:02:14.754Z,86.00
2018-03-08T03:04:42.438Z,96.33
2018-03-08T03:07:10.151Z,87.93
2018-03-08T03:09:37.833Z,77.27
2018-03-08T03:12:05.502Z,76.60
2018-03-08T03:14:33.178Z,90.47
2018-03-08T03:17:00.863Z,81.50
2018-03-08T03:19:28.507Z,86.00
2018-03-08T03:21:56.196Z,91.97
2018-03-08T03:24:23.825Z,74.77
2018-03-08T03:26:51.523Z,83.17
2018-03-08T03:29:19.171Z,76.37
2018-03-08T03:31:46.964Z,65.40
2018-03-08T03:34:14.653Z,73.10
2018-03-08T03:36:42.292Z,65.43
2018-03-08T03:39:09.970Z,75.13
2018-03-08T03:41:37.653Z,83.97
2018-03-08T03:44:05.353Z,79.87
2018-03-08T03:46:33.006Z,76.87
2018-03-08T03:49:00.683Z,81.70
2018-03-08T03:51:28.369Z,83.63
2018-03-08T03:53:56.052Z,83.30
2018-03-08T03:56:23.736Z,86.97
2018-03-08T03:58:51.491Z,74.07
2018-03-08T04:01:19.175Z,86.87
2018-03-08T04:03:46.992Z,80.47
2018-03-08T04:06:14.688Z,70.93
2018-03-08T04:08:42.360Z,75.07
2018-03-08T04:11:10.163Z,84.60
2018-03-08T04:13:37.810Z,73.67
2018-03-08T04:16:05.501Z,79.20
2018-03-08T04:18:33.145Z,78.13
2018-03-08T04:21:00.834Z,68.00
2018-03-08T04:23:28.469Z,79.53
2018-03-08T04:25:56.186Z,83.13
2018-03-08T04:28:23.830Z,78.77
2018-03-08T04:30:51.628Z,83.50
2018-03-08T04:33:24.366Z,75.43
2018-03-08T04:35:52.200Z,80.60
2018-03-08T04:38:19.878Z,82.93
2018-03-08T04:40:47.655Z,79.37
2018-03-08T04:43:15.338Z,79.30
2018-03-08T04:45:42.968Z,86.70
2018-03-08T04:48:10.811Z,74.53
2018-03-08T04:50:38.466Z,86.07
2018-03-08T04:53:06.151Z,78.47
2018-03-08T04:55:33.913Z,95.37
2018-03-08T04:58:01.604Z,78.17
2018-03-08T05:00:29.275Z,80.80
2018-03-08T05:02:56.968Z,78.03
2018-03-08T05:05:24.650Z,77.80
2018-03-08T05:07:52.344Z,88.50
2018-03-08T05:10:19.987Z,76.20
2018-03-08T05:12:47.750Z,83.40
2018-03-08T05:15:15.411Z,80.27
2018-03-08T05:17:43.106Z,83.30
2018-03-08T05:20:10.871Z,70.77
2018-03-08T05:22:38.590Z,75.60
2018-03-08T05:25:06.278Z,73.23
2018-03-08T05:27:33.998Z,92.87
2018-03-08T05:30:01.664Z,81.70
2018-03-08T05:32:29.359Z,87.80
2018-03-08T05:34:57.011Z,82.93
2018-03-08T05:37:24.712Z,76.40
2018-03-08T05:39:52.547Z,82.00
2018-03-08T05:42:20.200Z,83.63
2018-03-08T05:44:47.892Z,86.87
2018-03-08T05:47:15.528Z,82.20
2018-03-08T05:49:43.260Z,137.53
2018-03-08T05:52:10.908Z,98.17
2018-03-08T05:54:38.592Z,102.53
2018-03-08T05:57:06.239Z,80.93
2018-03-08T05:59:34.884Z,86.67
2018-03-08T06:02:02.656Z,90.60
2018-03-08T06:04:30.356Z,105.50
2018-03-08T06:06:58.059Z,102.87
2018-03-08T06:09:25.763Z,107.67
2018-03-08T06:11:53.468Z,90.57
2018-03-08T06:14:21.507Z,96.43
2018-03-08T06:16:49.478Z,89.63
2018-03-08T06:19:17.331Z,89.00
2018-03-08T06:21:45.220Z,86.73
2018-03-08T06:24:13.097Z,93.90
2018-03-08T06:26:41.040Z,83.67
2018-03-08T06:29:08.706Z,87.63
2018-03-08T06:31:36.417Z,88.87
2018-03-08T06:34:04.096Z,79.63
2018-03-08T06:36:31.866Z,84.53
2018-03-08T06:38:59.703Z,97.87
2018-03-08T06:41:27.435Z,93.97
2018-03-08T06:43:56.578Z,92.97
2018-03-08T06:46:24.422Z,80.13
2018-03-08T06:48:52.287Z,93.97
2018-03-08T06:51:20.087Z,92.30
2018-03-08T06:53:47.863Z,91.20
2018-03-08T06:56:15.593Z,81.50
2018-03-08T06:58:43.427Z,82.23
2018-03-08T07:01:11.123Z,90.43
2018-03-08T07:03:38.782Z,92.07
2018-03-08T07:06:06.626Z,93.37
2018-03-08T07:08:34.532Z,100.60
2018-03-08T07:11:02.378Z,102.20
2018-03-08T07:13:30.215Z,117.53
2018-03-08T07:15:58.090Z,92.13
2018-03-08T07:18:25.866Z,97.33
2018-03-08T07:20:53.698Z,92.07
2018-03-08T07:23:21.396Z,92.10
2018-03-08T07:25:49.079Z,99.10
2018-03-08T07:28:16.743Z,105.27
2018-03-08T07:30:44.502Z,82.87
2018-03-08T07:33:12.173Z,91.67
2018-03-08T07:35:39.981Z,99.60
2018-03-08T07:38:07.743Z,100.77
2018-03-08T07:40:35.570Z,96.70
2018-03-08T07:43:03.325Z,86.07
2018-03-08T07:45:31.161Z,98.93
2018-03-08T07:47:58.983Z,88.50
2018-03-08T07:50:26.695Z,108.73
2018-03-08T07:52:54.498Z,85.30
2018-03-08T07:55:22.250Z,101.33
2018-03-08T07:57:50.030Z,90.90
2018-03-08T08:00:17.789Z,107.07
2018-03-08T08:02:45.595Z,134.23
2018-03-08T08:05:25.033Z,125.23
2018-03-08T08:08:04.390Z,117.10
2018-03-08T08:10:32.238Z,125.03
2018-03-08T08:13:00.096Z,104.07
2018-03-08T08:15:27.844Z,96.43
2018-03-08T08:17:55.716Z,103.33
2018-03-08T08:20:23.499Z,93.93
2018-03-08T08:22:51.378Z,103.27
2018-03-08T08:25:19.191Z,105.70
2018-03-08T08:27:46.978Z,92.80
2018-03-08T08:30:14.755Z,101.73
2018-03-08T08:32:42.570Z,94.00
2018-03-08T08:35:10.314Z,89.93
2018-03-08T08:37:38.142Z,88.63
2018-03-08T08:40:05.951Z,76.90
2018-03-08T08:42:33.827Z,83.63
2018-03-08T08:45:01.646Z,84.27
2018-03-08T08:47:29.483Z,78.47
2018-03-08T08:49:57.237Z,72.80
2018-03-08T08:52:25.263Z,72.63
2018-03-08T08:54:53.047Z,74.63
2018-03-08T08:57:21.676Z,72.07
2018-03-08T08:59:49.542Z,72.47
2018-03-08T09:02:17.287Z,67.47
2018-03-08T09:04:45.142Z,68.37
2018-03-08T09:07:12.959Z,61.07
2018-03-08T09:09:40.775Z,59.97
2018-03-08T09:12:08.515Z,57.47
2018-03-08T09:14:36.585Z,50.10
2018-03-08T09:17:04.355Z,52.97
2018-03-08T09:19:32.227Z,48.43
2018-03-08T09:21:59.971Z,51.47
2018-03-08T09:24:27.790Z,48.20
2018-03-08T09:26:55.566Z,50.27
2018-03-08T09:29:23.395Z,46.67
2018-03-08T09:31:51.271Z,46.30
2018-03-08T09:34:19.150Z,42.47
2018-03-08T09:36:46.829Z,37.27
2018-03-08T09:39:14.576Z,35.10
2018-03-08T09:41:42.287Z,39.70
2018-03-08T09:44:10.032Z,38.67
2018-03-08T09:46:37.769Z,40.40
2018-03-08T09:49:05.456Z,36.10
2018-03-08T09:51:33.152Z,33.20
2018-03-08T09:54:00.858Z,33.87
2018-03-08T09:56:28.757Z,29.13
2018-03-08T09:58:56.445Z,34.37
2018-03-08T10:01:24.184Z,29.83
2018-03-08T10:03:51.868Z,33.57
2018-03-08T10:06:19.673Z,34.90
2018-03-08T10:08:47.422Z,25.90
2018-03-08T10:11:15.109Z,25.63
2018-03-08T10:13:42.879Z,24.63
2018-03-08T10:16:10.607Z,27.77
2018-03-08T10:18:38.354Z,27.83
2018-03-08T10:21:06.136Z,30.77
2018-03-08T10:23:33.858Z,27.00
2018-03-08T10:26:01.643Z,24.83
2018-03-08T10:28:29.309Z,28.07
2018-03-08T10:30:56.999Z,23.60
2018-03-08T10:33:24.758Z,23.23
2018-03-08T10:35:52.458Z,21.17
2018-03-08T10:38:20.371Z,29.80
2018-03-08T10:40:48.179Z,64.07
2018-03-08T10:43:15.896Z,93.50
2018-03-08T10:45:43.566Z,71.87
2018-03-08T10:48:11.290Z,124.20
2018-03-08T10:50:38.982Z,82.83
2018-03-08T10:53:06.829Z,33.43
2018-03-08T10:55:34.602Z,25.63
2018-03-08T10:58:02.378Z,24.27
2018-03-08T11:00:35.788Z,26.43
2018-03-08T11:03:06.981Z,30.33
2018-03-08T11:05:40.058Z,24.50
2018-03-08T11:08:07.881Z,26.67
2018-03-08T11:10:35.709Z,60.93
2018-03-08T11:13:03.444Z,28.47
2018-03-08T11:15:31.272Z,24.80
2018-03-08T11:17:59.209Z,30.57
2018-03-08T11:20:26.886Z,32.63
2018-03-08T11:22:54.569Z,32.63
2018-03-08T11:25:22.279Z,27.30
2018-03-08T11:27:49.990Z,30.40
2018-03-08T11:30:17.687Z,31.37
2018-03-08T11:32:45.356Z,29.47
2018-03-08T11:35:13.085Z,32.10
2018-03-08T11:37:40.915Z,34.43
2018-03-08T11:40:08.614Z,29.93
2018-03-08T11:42:36.442Z,31.93
2018-03-08T11:45:04.215Z,36.30
2018-03-08T11:47:31.891Z,34.43
2018-03-08T11:49:59.666Z,33.33
2018-03-08T11:52:27.386Z,35.97
2018-03-08T11:54:55.196Z,37.23
2018-03-08T11:57:22.990Z,36.03
2018-03-08T11:59:50.948Z,33.43
2018-03-08T12:02:18.779Z,32.43
2018-03-08T12:04:46.540Z,30.97
2018-03-08T12:07:14.343Z,31.17
2018-03-08T12:09:42.014Z,35.90
2018-03-08T12:12:09.850Z,41.80
2018-03-08T12:14:37.642Z,39.20
2018-03-08T12:17:05.432Z,35.50
2018-03-08T12:19:33.154Z,38.20
2018-03-08T12:22:00.999Z,35.63
2018-03-08T12:24:28.779Z,39.20
2018-03-08T12:26:56.563Z,36.63
2018-03-08T12:29:24.244Z,40.03
2018-03-08T12:31:52.119Z,38.03
2018-03-08T12:34:19.802Z,46.70
2018-03-08T12:36:47.530Z,45.13
2018-03-08T12:39:15.231Z,55.10
2018-03-08T12:41:43.021Z,52.37
2018-03-08T12:44:10.733Z,50.63
2018-03-08T12:46:38.386Z,40.97
2018-03-08T12:49:06.125Z,33.83
2018-03-08T12:51:33.892Z,35.20
2018-03-08T12:54:01.610Z,34.00
2018-03-08T12:56:29.411Z,32.90
2018-03-08T12:58:57.243Z,39.97
2018-03-08T13:01:24.889Z,31.43
2018-03-08T13:03:54.118Z,30.23
2018-03-08T13:06:22.007Z,28.97
2018-03-08T13:08:49.741Z,29.57
2018-03-08T13:11:17.438Z,28.00
2018-03-08T13:13:45.139Z,28.80
2018-03-08T13:16:12.978Z,26.90
2018-03-08T13:18:40.697Z,29.77
2018-03-08T13:21:08.364Z,29.90
2018-03-08T13:23:36.198Z,32.00
2018-03-08T13:26:03.967Z,30.87
2018-03-08T13:28:31.811Z,29.60
2018-03-08T13:30:59.475Z,26.10
2018-03-08T13:33:27.218Z,30.70
2018-03-08T13:35:55.047Z,31.40
2018-03-08T13:38:22.806Z,29.57
2018-03-08T13:40:50.669Z,24.83
2018-03-08T13:43:18.470Z,24.87
2018-03-08T13:45:46.309Z,21.50
2018-03-08T13:48:14.170Z,23.17
2018-03-08T13:50:41.962Z,22.77
2018-03-08T13:53:09.642Z,25.20
2018-03-08T13:55:37.354Z,46.60
2018-03-08T13:58:05.054Z,28.60
2018-03-08T14:00:32.714Z,25.70
2018-03-08T14:03:00.563Z,22.00
2018-03-08T14:05:28.302Z,32.47
2018-03-08T14:07:56.151Z,27.07
2018-03-08T14:10:23.883Z,25.07
2018-03-08T14:12:51.726Z,21.00
2018-03-08T14:15:19.478Z,27.20
2018-03-08T14:17:47.229Z,41.40
2018-03-08T14:20:15.086Z,45.00
2018-03-08T14:22:42.923Z,26.10
2018-03-08T14:25:10.743Z,30.90
2018-03-08T14:27:38.487Z,17.47
2018-03-08T14:30:06.350Z,14.77
2018-03-08T14:32:34.183Z,17.03
2018-03-08T14:35:01.887Z,16.90
2018-03-08T14:37:29.628Z,19.43
2018-03-08T14:39:57.344Z,17.90
2018-03-08T14:42:25.039Z,23.60
2018-03-08T14:44:52.724Z,19.80
2018-03-08T14:47:20.454Z,26.43
2018-03-08T14:49:48.283Z,23.03
2018-03-08T14:52:16.006Z,22.73
2018-03-08T14:54:43.874Z,15.40
2018-03-08T14:57:11.718Z,21.60
2018-03-08T14:59:39.480Z,48.43
2018-03-08T15:02:07.386Z,121.13
2018-03-08T15:04:35.053Z,125.00
2018-03-08T15:07:02.801Z,173.17
2018-03-08T15:09:30.497Z,230.47
2018-03-08T15:11:58.182Z,188.33
2018-03-08T15:14:25.888Z,136.90
2018-03-08T15:16:53.706Z,198.10
2018-03-08T15:19:21.454Z,53.83
2018-03-08T15:21:49.170Z,46.53
2018-03-08T15:24:16.894Z,17.67
2018-03-08T15:29:21.118Z,12.23
2018-03-08T15:31:48.778Z,13.17
2018-03-08T15:34:16.588Z,16.00
2018-03-08T15:36:44.313Z,10.83
2018-03-08T15:39:13.225Z,14.63
2018-03-08T15:41:41.008Z,13.23
2018-03-08T15:44:08.836Z,17.00
2018-03-08T15:46:36.591Z,11.30
2018-03-08T15:49:04.381Z,14.57
2018-03-08T15:51:32.190Z,12.30
2018-03-08T15:53:59.936Z,10.43
2018-03-08T15:56:27.631Z,8.47
2018-03-08T15:58:55.426Z,10.33
2018-03-08T16:01:23.237Z,8.53
2018-03-08T16:03:50.903Z,8.80
2018-03-08T16:06:25.382Z,9.70
2018-03-08T16:09:01.011Z,9.30
2018-03-08T16:11:28.804Z,7.50
2018-03-08T16:13:56.525Z,9.83
2018-03-08T16:16:24.247Z,13.20
2018-03-08T16:18:51.974Z,11.33
2018-03-08T16:21:19.687Z,10.57
2018-03-08T16:23:47.483Z,9.97
2018-03-08T16:26:15.305Z,9.13
2018-03-08T16:28:43.178Z,9.23
2018-03-08T16:31:10.911Z,7.20
2018-03-08T16:33:38.726Z,7.43
2018-03-08T16:36:06.491Z,8.70
2018-03-08T16:38:34.222Z,7.73
2018-03-08T16:41:01.935Z,6.37
2018-03-08T16:43:29.626Z,9.30
2018-03-08T16:45:57.374Z,8.00
2018-03-08T16:48:25.070Z,10.07
2018-03-08T16:50:52.734Z,9.40
2018-03-08T16:53:20.514Z,9.13
2018-03-08T16:55:48.238Z,11.90
2018-03-08T16:58:15.966Z,11.63
2018-03-08T17:00:43.632Z,8.27
2018-03-08T17:03:11.358Z,11.17
2018-03-08T17:05:39.911Z,7.90
2018-03-08T17:08:07.642Z,7.17
2018-03-08T17:10:35.378Z,9.17
2018-03-08T17:13:03.078Z,7.77
2018-03-08T17:15:30.799Z,8.37
2018-03-08T17:17:58.510Z,9.30
2018-03-08T17:20:26.294Z,10.60
2018-03-08T17:22:53.946Z,8.40
2018-03-08T17:25:21.697Z,7.53
2018-03-08T17:27:49.377Z,7.83
2018-03-08T17:30:17.139Z,7.90
2018-03-08T17:32:44.856Z,9.17
2018-03-08T17:35:12.558Z,9.80
2018-03-08T17:37:40.221Z,85.93
2018-03-08T17:40:07.928Z,275.80
2018-03-08T17:42:35.576Z,281.47
2018-03-08T17:45:03.267Z,167.93
2018-03-08T17:47:30.912Z,198.00
2018-03-08T17:49:58.757Z,27.67
2018-03-08T17:52:26.576Z,8.13
2018-03-08T17:54:54.325Z,11.23
2018-03-08T17:57:22.464Z,13.63
2018-03-08T17:59:50.478Z,14.17
2018-03-08T18:02:18.396Z,17.90
2018-03-08T18:04:46.643Z,13.97
2018-03-08T18:07:15.217Z,16.30
2018-03-08T18:09:43.402Z,10.50
2018-03-08T18:12:11.706Z,11.80
2018-03-08T18:14:40.014Z,9.60
2018-03-08T18:17:07.703Z,9.53
2018-03-08T18:19:35.397Z,10.57
2018-03-08T18:22:03.117Z,9.27
2018-03-08T18:24:30.771Z,10.90
2018-03-08T18:26:58.456Z,9.43
2018-03-08T18:29:26.104Z,11.20
2018-03-08T18:31:53.798Z,12.20
2018-03-08T18:34:21.516Z,11.77
2018-03-08T18:36:49.295Z,10.80
2018-03-08T18:39:16.973Z,11.13
2018-03-08T18:41:44.642Z,9.87
2018-03-08T18:44:12.403Z,11.13
2018-03-08T18:46:40.051Z,11.10
2018-03-08T18:49:07.813Z,12.07
2018-03-08T18:51:35.512Z,10.07
2018-03-08T18:54:03.228Z,12.10
2018-03-08T18:56:30.943Z,10.83
2018-03-08T18:58:58.631Z,10.70
2018-03-08T19:01:26.281Z,11.40
2018-03-08T19:03:53.985Z,9.50
2018-03-08T19:06:21.675Z,11.30
2018-03-08T19:08:49.399Z,10.60
2018-03-08T19:11:17.078Z,11.13
2018-03-08T19:13:44.777Z,13.43
2018-03-08T19:16:12.459Z,11.43
2018-03-08T19:18:40.192Z,12.07
2018-03-08T19:21:07.897Z,13.00
2018-03-08T19:23:35.589Z,9.30
2018-03-08T19:26:03.335Z,10.33
2018-03-08T19:28:31.055Z,12.13
2018-03-08T19:30:58.745Z,8.90
2018-03-08T19:33:26.402Z,12.10
2018-03-08T19:35:54.126Z,11.50
2018-03-08T19:38:21.855Z,10.00
2018-03-08T19:40:49.570Z,10.70
2018-03-08T19:43:17.270Z,11.10
2018-03-08T19:45:44.950Z,11.87
2018-03-08T19:48:12.616Z,10.90
2018-03-08T19:50:40.331Z,10.63
2018-03-08T19:53:08.114Z,11.93
2018-03-08T19:55:35.886Z,10.03
2018-03-08T19:58:03.537Z,10.50
2018-03-08T20:00:31.246Z,11.23
2018-03-08T20:02:58.943Z,12.17
2018-03-08T20:05:26.588Z,11.77
2018-03-08T20:07:54.264Z,13.10
2018-03-08T20:10:21.915Z,12.50
2018-03-08T20:12:49.595Z,11.33
2018-03-08T20:15:17.369Z,13.00
2018-03-08T20:17:45.077Z,12.90
2018-03-08T20:20:12.766Z,13.77
2018-03-08T20:22:40.477Z,13.57
2018-03-08T20:25:08.192Z,13.20
2018-03-08T20:27:35.868Z,11.40
2018-03-08T20:30:03.588Z,17.03
2018-03-08T20:32:31.315Z,15.23
2018-03-08T20:34:59.020Z,14.43
2018-03-08T20:37:26.708Z,12.50
2018-03-08T20:39:54.475Z,12.23
2018-03-08T20:42:22.127Z,9.30
2018-03-08T20:44:49.807Z,9.93
2018-03-08T20:47:17.523Z,6.87
2018-03-08T20:49:45.267Z,3.13
2018-03-08T20:52:13.050Z,2.60
2018-03-08T20:54:40.730Z,2.80
2018-03-08T20:57:08.371Z,2.07
2018-03-08T20:59:36.065Z,2.10
2018-03-08T21:02:03.730Z,1.77
2018-03-08T21:04:31.433Z,2.20
2018-03-08T21:06:59.297Z,2.70
2018-03-08T21:09:26.994Z,2.23
2018-03-08T21:11:54.702Z,2.63
2018-03-08T21:14:22.429Z,2.70
2018-03-08T21:16:50.105Z,2.23
2018-03-08T21:19:17.831Z,2.93
2018-03-08T21:21:45.450Z,3.33
2018-03-08T21:24:13.210Z,4.40
2018-03-08T21:26:41.106Z,2.27
2018-03-08T21:29:09.036Z,3.20
2018-03-08T21:31:36.720Z,8.17
2018-03-08T21:34:04.418Z,9.80
2018-03-08T21:36:32.122Z,6.20
2018-03-08T21:38:59.842Z,6.43
2018-03-08T21:41:27.543Z,5.20
2018-03-08T21:43:55.259Z,7.37
2018-03-08T21:46:23.031Z,3.90
2018-03-08T21:48:50.719Z,2.90
2018-03-08T21:51:18.429Z,3.23
2018-03-08T21:53:46.086Z,4.10
2018-03-08T21:56:13.831Z,3.33
2018-03-08T21:58:41.462Z,2.83
2018-03-08T22:01:09.166Z,3.90
2018-03-08T22:03:36.871Z,3.80
2018-03-08T22:06:04.589Z,4.20
2018-03-08T22:08:32.254Z,4.80
2018-03-08T22:10:59.951Z,5.80
2018-03-08T22:13:27.614Z,4.50
2018-03-08T22:15:55.426Z,5.10
2018-03-08T22:18:23.186Z,4.90
2018-03-08T22:20:50.883Z,4.70
2018-03-08T22:23:18.520Z,4.73
2018-03-08T22:25:46.242Z,4.40
2018-03-08T22:28:13.875Z,4.10
2018-03-08T22:30:41.562Z,5.40
2018-03-08T22:33:09.307Z,5.27
2018-03-08T22:35:36.976Z,5.23
2018-03-08T22:38:04.665Z,5.10
2018-03-08T22:40:32.398Z,5.03
2018-03-08T22:43:00.101Z,5.37
2018-03-08T22:45:27.828Z,6.90
2018-03-08T22:47:55.466Z,6.80
2018-03-08T22:50:23.258Z,6.17
2018-03-08T22:52:50.930Z,7.60
2018-03-08T22:55:18.603Z,8.10
2018-03-08T22:57:46.375Z,7.57
2018-03-08T23:00:14.074Z,9.23
2018-03-08T23:02:41.762Z,8.03
2018-03-08T23:05:09.404Z,9.10
2018-03-08T23:07:37.098Z,11.97
2018-03-08T23:10:04.775Z,10.70
2018-03-08T23:12:32.453Z,10.80
2018-03-08T23:15:00.092Z,11.37
2018-03-08T23:17:28.847Z,15.87
2018-03-08T23:19:56.514Z,12.80
2018-03-08T23:22:24.148Z,12.97
2018-03-08T23:24:51.826Z,13.60
2018-03-08T23:27:19.508Z,14.03
2018-03-08T23:29:47.189Z,17.80
2018-03-08T23:32:14.876Z,15.60
2018-03-08T23:34:42.545Z,14.00
2018-03-08T23:37:10.178Z,17.20
2018-03-08T23:39:37.855Z,17.07
2018-03-08T23:42:05.516Z,17.50
2018-03-08T23:44:33.195Z,16.23
2018-03-08T23:47:00.881Z,19.70
2018-03-08T23:49:28.559Z,17.70
2018-03-08T23:51:56.252Z,18.30
2018-03-08T23:54:23.943Z,18.20
2018-03-08T23:56:51.639Z,17.80
2018-03-08T23:59:19.278Z,16.07
